• Join FlightAware (Why Join?)
  • Login
  • US Flag 
02:01AM EDT


 

Airport Tracker/Info


-or-


 

Live Flight TrackerFlight Track Log ✈ LXJ541 ✈ 18-Apr-2013 ✈ KCHO - KBHM

Flight Track Log - Related Links

Times and Time Zones

All times are in EDT time to prevent confusion due to time zone crossing. See the LXJ541 flight status page for this flight to view local times or setup timezone preferences in your user account.

Time Position Orientation Groundspeed Altitude Reporting Facility
EDT Latitude Longitude Course Direction KTS MPH feet Rate Location/Type
06:32PM 38.1167 -78.4667 247° West 157 181 1,800  Level Potomac TRACON
06:33PM 38.0867 -78.5572 247° West 207 238 6,100 3,300 Climbing Washington Center
06:34PM 38.0597 -78.6325 246° West 245 282 9,600 3,360 Climbing Washington Center
06:35PM 38.0303 -78.7236 248° West 261 300 12,900 2,880 Climbing Washington Center
06:36PM 37.9964 -78.8222 246° West 290 334 15,400 2,700 Climbing Washington Center
06:37PM 37.9575 -78.9472 249° West 335 386 18,400 2,700 Climbing Washington Center
06:38PM 37.9186 -79.0611 247° West 353 406 20,900 2,400 Climbing Washington Center
06:39PM 37.8717 -79.1747 242° Southwest 359 413 23,200 2,100 Climbing Washington Center
06:40PM 37.8139 -79.2878 237° Southwest 366 421 25,200 1,920 Climbing Washington Center
06:41PM 37.7628 -79.3931 238° Southwest 381 438 27,100 2,100 Climbing Washington Center
06:42PM 37.6958 -79.5233 237° Southwest 395 455 29,400 1,920 Climbing Washington Center
06:43PM 37.6403 -79.6306 237° Southwest 406 467 31,000 1,500 Climbing Washington Center
06:44PM 37.5708 -79.7633 237° Southwest 414 476 32,500 960 Climbing Washington Center
06:45PM 37.5056 -79.9011 239° Southwest 436 502 33,000 660 Climbing Washington Center
06:46PM 37.4425 -80.0256 237° Southwest 456 525 33,900 1,260 Climbing Washington Center
06:48PM 37.3456 -80.2094 236° Southwest 460 529 36,000 1,440 Climbing Atlanta Center
06:49PM 37.2786 -80.3378 237° Southwest 455 524 37,300 960 Climbing Atlanta Center
06:50PM 37.2156 -80.4606 237° Southwest 442 509 38,000 300 Climbing Atlanta Center
06:51PM 37.1583 -80.5700 237° Southwest 431 496 38,000  Level Atlanta Center
06:52PM 37.0931 -80.6978 237° Southwest 431 496 38,000  Level Atlanta Center
06:53PM 37.0422 -80.8325 245° Southwest 431 496 38,000 600 Level Atlanta Center
06:54PM 36.9878 -80.9828 246° West 431 496 39,200 960 Climbing Atlanta Center
06:55PM 36.9408 -81.1119 246° West 425 489 40,000 360 Climbing Atlanta Center
06:56PM 36.8939 -81.2461 246° West 425 489 40,000  Level Atlanta Center
06:57PM 36.8489 -81.3694 246° West 414 476 40,000  Level Atlanta Center
06:58PM 36.8053 -81.4850 245° Southwest 407 468 40,000  Level Atlanta Center
06:59PM 36.7664 -81.6133 249° West 400 460 40,000  Level Atlanta Center
07:00PM 36.7186 -81.7392 245° Southwest 400 460 40,000  Level Atlanta Center
07:01PM 36.6669 -81.8778 245° Southwest 400 460 40,000  Level Atlanta Center
07:02PM 36.6211 -82.0031 246° West 405 466 40,000  Level Atlanta Center
07:03PM 36.5731 -82.1283 244° Southwest 405 466 40,000  Level Atlanta Center
07:04PM 36.5269 -82.2508 245° Southwest 405 466 40,000  Level Atlanta Center
07:05PM 36.4831 -82.3786 247° West 405 466 40,000  Level Atlanta Center
07:06PM 36.4344 -82.5008 244° Southwest 399 459 40,000  Level Atlanta Center
07:07PM 36.3881 -82.6256 245° Southwest 399 459 40,000  Level Atlanta Center
07:08PM 36.3414 -82.7500 245° Southwest 399 459 40,000  Level Atlanta Center
07:09PM 36.2947 -82.8744 245° Southwest 405 466 40,000  Level Atlanta Center
07:10PM 36.2478 -82.9961 244° Southwest 400 460 40,000  Level Atlanta Center
07:11PM 36.2008 -83.1203 245° Southwest 405 466 40,000  Level Atlanta Center
07:12PM 36.1536 -83.2442 245° Southwest 399 459 40,000  Level Atlanta Center
07:13PM 36.1086 -83.3681 246° West 399 459 40,000  Level Atlanta Center
07:14PM 36.0611 -83.4917 245° Southwest 399 459 40,000  Level Atlanta Center
07:15PM 36.0200 -83.5997 245° Southwest 399 459 40,000  Level Atlanta Center
07:16PM 35.9722 -83.7206 244° Southwest 399 459 40,000  Level Atlanta Center
07:17PM 35.9267 -83.8414 245° Southwest 399 459 40,000  Level Atlanta Center
07:18PM 35.8642 -83.9517 235° Southwest 399 459 40,000  Level Atlanta Center
07:19PM 35.7892 -84.0542 228° Southwest 399 459 40,000 -480 Level Atlanta Center
07:20PM 35.7161 -84.1564 229° Southwest 399 459 39,100 -1,020 Descending Atlanta Center
07:21PM 35.6408 -84.2611 229° Southwest 409 471 38,000 -600 Descending Atlanta Center
07:22PM 35.5678 -84.3606 228° Southwest 409 471 38,000  Level Atlanta Center
07:23PM 35.4903 -84.4647 228° Southwest 409 471 38,000  Level Atlanta Center
07:24PM 35.4083 -84.5814 229° Southwest 409 471 38,000 -60 Level Atlanta Center
07:25PM 35.3328 -84.6853 228° Southwest 409 471 37,900 -900 Descending Atlanta Center
07:26PM 35.2569 -84.7917 229° Southwest 409 471 36,200 -1,500 Descending Atlanta Center
07:27PM 35.1792 -84.9003 229° Southwest 420 483 35,000 -600 Descending Atlanta Center
07:28PM 35.0989 -85.0086 228° Southwest 430 495 35,000  Level Atlanta Center
07:29PM 35.0250 -85.1092 228° Southwest 424 488 35,000  Level Atlanta Center
07:30PM 34.9511 -85.2094 228° Southwest 413 475 35,000  Level Atlanta Center
07:31PM 34.8750 -85.3097 227° Southwest 408 470 35,000  Level Atlanta Center
07:32PM 34.7967 -85.4172 228° Southwest 413 475 35,000 -720 Level Atlanta Center
07:33PM 34.7203 -85.5197 228° Southwest 413 475 33,600 -1,500 Descending Atlanta Center
07:34PM 34.6419 -85.6244 228° Southwest 413 475 32,000 -2,100 Descending Atlanta Center
07:35PM 34.5633 -85.7289 228° Southwest 413 475 29,500 -2,520 Descending Atlanta Center
07:36PM 34.4953 -85.8206 228° Southwest 413 475 27,000 -2,760 Descending Atlanta Center
07:37PM 34.4164 -85.9247 227° Southwest 413 475 24,000 -2,940 Descending Atlanta Center
07:38PM 34.3419 -86.0211 227° Southwest 413 475 21,200 -2,700 Descending Atlanta Center
07:39PM 34.2736 -86.1125 228° Southwest 396 456 18,700 -2,580 Descending Atlanta Center
07:40PM 34.2031 -86.2064 228° Southwest 374 430 16,100 -2,640 Descending Atlanta Center
07:40PM 34.1644 -86.2581 228° Southwest 341 392 14,700 -2,400 Descending Atlanta Center
07:41PM 34.1369 -86.2925 226° Southwest 357 411 13,700 -2,460 Descending Atlanta Center
07:41PM 34.1217 -86.3172 233° Southwest 340 391 13,000 -2,100 Descending Atlanta Center
07:42PM 34.0556 -86.4006 226° Southwest 341 392 11,100 -1,200 Descending Atlanta Center
07:43PM 34.0106 -86.4597 227° Southwest 345 397 11,000 -120 Descending Atlanta Center
07:43PM 33.9892 -86.4867 226° Southwest 323 372 11,000 -240 Level Atlanta Center
07:44PM 33.9447 -86.5203 212° Southwest 324 373 10,800 -900 Descending Atlanta Center
07:44PM 33.9214 -86.5347 207° Southwest 276 318 10,100 -2,040 Descending Atlanta Center
07:45PM 33.8747 -86.5633 207° Southwest 302 348 8,800 -2,100 Descending Atlanta Center
07:45PM 33.8536 -86.5778 210° Southwest 269 310 8,000 -2,100 Descending Atlanta Center
07:46PM 33.8036 -86.5786 181° South 269 310 6,700 -2,040 Descending Atlanta Center
07:46PM 33.7825 -86.5831 190° South 256 295 6,000 -2,040 Descending Atlanta Center
07:47PM 33.7386 -86.5942 192° South 256 295 4,700 -1,980 Descending Atlanta Center
07:47PM 33.7194 -86.6111 216° Southwest 233 268 4,000 -1,620 Descending Atlanta Center
07:48PM 33.6794 -86.6275 199° South 246 283 3,100 -1,020 Descending Atlanta Center
07:48PM 33.6583 -86.6419 210° Southwest 233 268 3,000 -420 Descending Atlanta Center
07:49PM 33.6264 -86.6608 206° Southwest 234 269 2,700 -600 Descending Atlanta Center
07:49PM 33.6117 -86.6778 224° Southwest 198 228 2,400 -600 Descending Atlanta Center
07:50PM 33.5800 -86.6894 197° South 217 250 2,100 -1,140 Descending Atlanta Center
07:50PM 33.5836 -86.7194 278° West 150 173 1,300 -2,340 Descending Atlanta Center
07:52PM 33.5639 -86.7523 217° Southwest  Level Estimated
07:59PM 33.5639 -86.7523 217° Southwest  Level Estimated